Time;durP1;ratioP1;P1;durP2;ratioP2;P2;SDS_P1;SDS_P2;PMS_P1;PMS_P2;Temp;Humidity;BMP_temperature;BMP_pressure;BME280_temperature;BME280_humidity;BME280_pressure;Samples;Min_cycle;Max_cycle;Signal;HPM_P1;HPM_P2
2022/11/26 00:00:19;;;;;;;36.53;15.85;;;;;;;6.15;96.09;102472.38;5098125;28;20031;-60
2022/11/26 00:02:45;;;;;;;31.73;15.63;;;;;;;6.13;96.45;102468.88;5097211;28;20039;-60
2022/11/26 00:05:13;;;;;;;29.50;14.68;;;;;;;6.11;96.10;102475.94;5091042;28;20038;-60
2022/11/26 00:07:39;;;;;;;32.70;15.07;;;;;;;6.12;96.42;102475.94;5090861;28;20177;-60
2022/11/26 00:10:28;;;;;;;33.22;15.15;;;;;;;6.11;96.11;102474.16;5092960;28;20036;-60
2022/11/26 00:12:55;;;;;;;32.92;14.85;;;;;;;6.12;96.18;102473.28;5103500;28;20130;-60
2022/11/26 00:15:29;;;;;;;29.67;15.73;;;;;;;6.09;96.04;102477.78;5096076;28;20386;-60
2022/11/26 00:17:58;;;;;;;32.22;14.02;;;;;;;6.05;96.05;102484.84;5092112;28;20129;-60
2022/11/26 00:20:31;;;;;;;28.00;15.13;;;;;;;6.04;96.14;102475.19;5101029;28;20149;-60
2022/11/26 00:23:03;;;;;;;28.27;14.85;;;;;;;6.04;95.78;102474.31;5088856;28;20032;-60
2022/11/26 00:25:42;;;;;;;29.08;14.30;;;;;;;5.79;94.84;102455.34;5090379;28;20198;-60
2022/11/26 00:28:32;;;;;;;26.45;14.95;;;;;;;6.01;95.08;102496.38;5099235;28;20074;-60
2022/11/26 00:31:02;;;;;;;23.70;13.93;;;;;;;6.02;94.42;102498.09;5089931;28;20055;-60
2022/11/26 00:33:28;;;;;;;33.17;15.75;;;;;;;5.91;95.05;102482.44;5094937;28;20024;-60
2022/11/26 00:36:23;;;;;;;25.35;14.63;;;;;;;5.98;94.89;102479.72;5092025;28;20109;-60
2022/11/26 00:38:57;;;;;;;24.30;14.77;;;;;;;5.89;95.28;102486.00;5086872;28;20043;-60
2022/11/26 00:41:24;;;;;;;29.25;14.02;;;;;;;5.74;94.42;102495.06;5090122;28;20077;-60
2022/11/26 00:43:50;;;;;;;20.65;13.15;;;;;;;5.84;93.83;102493.13;5092955;28;20114;-60
2022/11/26 00:46:18;;;;;;;24.38;14.70;;;;;;;5.81;94.26;102494.03;5091775;28;20474;-60
2022/11/26 00:48:46;;;;;;;28.15;14.13;;;;;;;5.67;93.82;102499.53;5090018;28;20031;-60
2022/11/26 00:51:19;;;;;;;27.48;14.10;;;;;;;5.83;94.31;102494.03;5095039;28;20020;-60
2022/11/26 00:53:46;;;;;;;24.15;14.48;;;;;;;5.75;93.88;102499.41;5091538;28;20101;-60
2022/11/26 00:56:15;;;;;;;33.33;15.07;;;;;;;5.77;94.53;102495.00;5091309;28;20111;-60
2022/11/26 00:58:40;;;;;;;24.48;14.65;;;;;;;5.74;95.05;102496.81;5090021;28;20026;-60
2022/11/26 01:01:11;;;;;;;31.85;14.95;;;;;;;5.71;94.62;102503.03;5095292;28;20024;-60
2022/11/26 01:03:36;;;;;;;27.25;14.77;;;;;;;5.66;94.44;102499.56;5090549;28;20051;-60
2022/11/26 01:06:01;;;;;;;25.80;14.88;;;;;;;5.67;95.77;102499.53;5095950;28;20052;-60
2022/11/26 01:08:32;;;;;;;33.47;14.88;;;;;;;5.58;95.67;102504.97;5091408;28;20040;-60
2022/11/26 01:11:00;;;;;;;30.00;15.75;;;;;;;5.49;95.84;102496.31;5092165;28;20055;-60
2022/11/26 01:13:27;;;;;;;28.77;14.77;;;;;;;5.52;96.09;102504.19;5091177;28;20024;-60
2022/11/26 01:15:54;;;;;;;36.95;17.05;;;;;;;5.49;96.55;102488.41;5092529;28;20024;-60
2022/11/26 01:18:21;;;;;;;38.05;16.58;;;;;;;5.49;96.98;102497.19;5091397;28;20395;-60
2022/11/26 01:20:47;;;;;;;30.73;14.85;;;;;;;5.49;97.15;102502.47;5091535;28;20024;-60
2022/11/26 01:23:14;;;;;;;26.50;14.88;;;;;;;5.51;97.48;102499.81;5090952;28;20028;-60
2022/11/26 01:25:40;;;;;;;34.58;17.77;;;;;;;5.53;97.08;102495.38;5096330;28;20387;-60
2022/11/26 01:28:11;;;;;;;29.50;15.85;;;;;;;5.46;97.33;102495.47;5097487;28;20054;-60
2022/11/26 01:30:40;;;;;;;29.77;15.75;;;;;;;5.44;97.15;102493.75;5095457;28;20391;-60
2022/11/26 01:33:05;;;;;;;36.10;16.77;;;;;;;5.42;97.04;102491.16;5094988;28;20471;-60
2022/11/26 01:35:31;;;;;;;31.02;16.05;;;;;;;5.43;97.29;102489.38;5111556;28;20099;-60
2022/11/26 01:37:56;;;;;;;26.58;15.27;;;;;;;5.42;97.13;102492.91;5113934;28;20134;-60
2022/11/26 01:40:31;;;;;;;27.30;16.33;;;;;;;5.46;97.44;102490.19;5115608;28;20052;-60
2022/11/26 01:43:04;;;;;;;30.10;16.25;;;;;;;5.38;97.45;102500.00;5115139;28;20470;-60
2022/11/26 01:45:32;;;;;;;28.65;15.68;;;;;;;5.38;97.38;102499.09;5096221;28;20394;-60
2022/11/26 01:47:58;;;;;;;37.15;17.20;;;;;;;5.36;97.83;102498.28;5094908;28;20024;-60
2022/11/26 01:50:35;;;;;;;33.20;17.73;;;;;;;5.42;97.27;102517.53;5094909;28;20076;-60
2022/11/26 01:53:05;;;;;;;29.63;16.85;;;;;;;5.35;97.25;102517.63;5093958;28;20019;-60
2022/11/26 01:55:35;;;;;;;;;;;;;;;5.50;96.83;102521.81;5114065;28;20023;-60
2022/11/26 01:58:05;;;;;;;28.48;15.85;;;;;;;5.35;97.10;102525.53;5115085;28;19963;-60
2022/11/26 02:00:32;;;;;;;35.45;16.80;;;;;;;5.37;97.06;102521.13;5098698;28;20542;-60
2022/11/26 02:03:01;;;;;;;32.60;17.30;;;;;;;5.32;97.85;102523.81;5094550;28;20115;-60
2022/11/26 02:05:30;;;;;;;32.95;17.20;;;;;;;5.29;98.03;102529.13;5095354;28;20031;-60
2022/11/26 02:07:56;;;;;;;36.05;17.60;;;;;;;5.22;98.24;102528.34;5093882;28;20036;-60
2022/11/26 02:10:25;;;;;;;32.00;16.75;;;;;;;5.24;98.50;102526.56;5094631;28;20116;-60
2022/11/26 02:12:51;;;;;;;30.30;17.50;;;;;;;5.29;98.35;102529.13;5076403;28;20035;-60
2022/11/26 02:15:17;;;;;;;30.10;16.08;;;;;;;5.24;98.48;102528.34;5094307;28;20032;-60
2022/11/26 02:17:45;;;;;;;30.38;17.20;;;;;;;5.30;98.26;102537.94;5082165;28;20035;-60
2022/11/26 02:20:29;;;;;;;34.08;16.65;;;;;;;5.30;98.58;102537.94;5114193;28;20023;-60
2022/11/26 02:23:32;;;;;;;34.03;16.60;;;;;;;5.28;99.26;102547.63;5103557;28;20051;-59
2022/11/26 02:25:59;;;;;;;31.92;16.85;;;;;;;5.24;98.11;102538.91;5094034;28;20118;-59
2022/11/26 02:28:47;;;;;;;30.98;17.73;;;;;;;5.21;98.27;102541.59;5094927;28;20040;-60
2022/11/26 02:31:34;;;;;;;29.27;16.88;;;;;;;5.21;98.74;102549.50;5093530;28;20039;-59
2022/11/26 02:34:33;;;;;;;28.25;16.50;;;;;;;5.27;99.01;102545.91;5127378;27;20070;-59
2022/11/26 02:37:09;;;;;;;31.88;16.48;;;;;;;5.19;98.39;102540.72;5071614;28;20032;-60
2022/11/26 02:39:35;;;;;;;30.70;16.20;;;;;;;5.16;98.63;102531.06;5073455;28;20107;-60
2022/11/26 02:42:02;;;;;;;30.55;15.77;;;;;;;5.21;98.33;102542.44;5073760;28;20063;-60
2022/11/26 02:44:38;;;;;;;33.15;16.50;;;;;;;5.20;98.75;102539.81;5088081;28;20459;-60
2022/11/26 02:47:09;;;;;;;35.10;16.42;;;;;;;5.08;98.25;102530.31;5093761;28;20417;-60
2022/11/26 02:49:40;;;;;;;31.73;16.48;;;;;;;5.05;98.86;102532.97;5093553;28;20059;-60
2022/11/26 02:52:09;;;;;;;26.35;16.02;;;;;;;5.17;99.06;102546.00;5094456;28;20467;-60
2022/11/26 02:54:36;;;;;;;26.08;15.80;;;;;;;5.10;98.43;102552.25;5095894;28;20115;-60
2022/11/26 02:57:07;;;;;;;27.48;15.40;;;;;;;5.18;98.23;102549.53;5079104;28;20035;-60
2022/11/26 02:59:34;;;;;;;28.88;15.63;;;;;;;5.11;97.62;102545.22;5082753;28;20031;-60
2022/11/26 03:02:04;;;;;;;36.78;16.50;;;;;;;5.15;98.67;102552.22;5074404;28;20130;-60
2022/11/26 03:04:34;;;;;;;32.65;15.43;;;;;;;5.11;98.46;102553.13;5085313;28;20491;-60
2022/11/26 03:07:03;;;;;;;32.72;15.68;;;;;;;5.13;98.93;102557.50;5073605;28;20444;-60
2022/11/26 03:09:47;;;;;;;28.92;16.13;;;;;;;5.16;98.46;102565.38;5072720;28;20024;-60
2022/11/26 03:12:12;;;;;;;32.42;15.57;;;;;;;5.13;98.54;102565.41;5073043;28;20100;-60
2022/11/26 03:14:37;;;;;;;31.75;17.02;;;;;;;5.10;98.44;102568.09;5098681;28;20112;-60
2022/11/26 03:17:03;;;;;;;33.10;16.02;;;;;;;5.04;98.82;102573.44;5071749;28;20521;-60
2022/11/26 03:19:28;;;;;;;31.00;15.85;;;;;;;5.08;98.75;102571.63;5071254;28;20037;-60
2022/11/26 03:21:54;;;;;;;34.83;16.77;;;;;;;5.09;99.12;102574.25;5071637;28;20444;-60
2022/11/26 03:24:19;;;;;;;28.88;15.50;;;;;;;5.00;98.51;102571.75;5085579;28;20032;-60
2022/11/26 03:26:45;;;;;;;27.80;15.27;;;;;;;5.03;98.71;102574.34;5081092;28;20093;-60
2022/11/26 03:29:10;;;;;;;34.10;17.13;;;;;;;5.03;98.51;102578.72;5084794;28;20583;-60
2022/11/26 03:31:36;;;;;;;29.20;16.90;;;;;;;5.06;99.50;102579.56;5082885;28;20028;-60
2022/11/26 03:34:01;;;;;;;32.50;15.55;;;;;;;5.04;98.80;102583.97;5086314;28;20025;-60
2022/11/26 03:36:27;;;;;;;33.95;16.60;;;;;;;4.99;99.23;102581.38;5086804;28;20154;-60
2022/11/26 03:38:55;;;;;;;33.05;15.75;;;;;;;5.00;99.60;102588.44;5072150;28;20078;-60
2022/11/26 03:41:20;;;;;;;33.17;16.40;;;;;;;5.00;99.82;102583.16;5087974;28;20490;-60
2022/11/26 03:43:46;;;;;;;33.85;16.40;;;;;;;5.03;99.32;102582.25;5125233;27;20094;-60
2022/11/26 03:46:14;;;;;;;33.35;15.77;;;;;;;5.01;99.48;102584.88;5088042;28;20057;-60
2022/11/26 03:48:39;;;;;;;34.88;16.00;;;;;;;4.98;99.51;102581.41;5091795;28;20471;-60
2022/11/26 03:51:05;;;;;;;30.05;16.15;;;;;;;5.01;99.04;102584.03;5089089;28;20058;-60
2022/11/26 03:53:30;;;;;;;35.45;15.48;;;;;;;4.93;98.60;102591.13;5072520;28;20032;-60
2022/11/26 03:55:56;;;;;;;27.88;15.38;;;;;;;4.92;98.84;102581.50;5079048;28;20032;-60
2022/11/26 03:58:21;;;;;;;34.08;16.30;;;;;;;4.92;99.47;102590.28;5092471;28;20468;-60
2022/11/26 04:00:47;;;;;;;24.55;14.07;;;;;;;4.84;99.07;102578.94;5079696;28;20492;-60
2022/11/26 04:03:15;;;;;;;29.73;14.90;;;;;;;4.86;98.82;102586.84;5076076;28;20020;-59
2022/11/26 04:05:41;;;;;;;29.88;14.30;;;;;;;4.89;98.34;102599.97;5082977;28;20167;-60
2022/11/26 04:08:06;;;;;;;23.33;14.15;;;;;;;4.69;97.36;102587.88;5071829;28;20109;-60
2022/11/26 04:10:32;;;;;;;25.10;13.93;;;;;;;4.77;97.88;102607.13;5082081;28;20030;-60
2022/11/26 04:12:57;;;;;;;27.38;13.77;;;;;;;4.76;97.79;102600.13;5094072;28;20741;-60
2022/11/26 04:15:25;;;;;;;23.63;13.68;;;;;;;4.68;97.65;102606.38;5092221;28;20028;-60
2022/11/26 04:17:50;;;;;;;26.70;13.50;;;;;;;4.62;97.29;102614.31;5090278;28;20570;-60
2022/11/26 04:20:16;;;;;;;24.80;13.30;;;;;;;4.66;97.41;102616.91;5092177;28;20107;-60
2022/11/26 04:22:42;;;;;;;25.45;13.50;;;;;;;4.65;96.89;102627.47;5091501;28;20036;-59
2022/11/26 04:25:08;;;;;;;21.15;12.15;;;;;;;4.64;96.80;102626.56;5093172;28;20028;-60
2022/11/26 04:27:35;;;;;;;27.65;13.13;;;;;;;4.63;97.52;102624.84;5079797;28;20041;-59
2022/11/26 04:30:00;;;;;;;26.63;13.48;;;;;;;4.60;97.81;102622.25;5070464;28;20044;-60
2022/11/26 04:32:26;;;;;;;26.77;14.27;;;;;;;4.64;98.63;102616.03;5090607;28;20035;-60
2022/11/26 04:34:51;;;;;;;35.88;15.25;;;;;;;4.69;99.42;102608.97;5090942;28;20027;-60
2022/11/26 04:37:16;;;;;;;31.20;15.07;;;;;;;4.71;99.93;102609.84;5086051;28;20058;-60
2022/11/26 04:39:42;;;;;;;36.15;15.23;;;;;;;4.73;100.00;102618.56;5071086;28;20028;-59
2022/11/26 04:42:08;;;;;;;27.23;15.05;;;;;;;4.74;100.00;102609.81;5104423;28;20036;-60
2022/11/26 04:44:33;;;;;;;25.33;13.85;;;;;;;4.70;99.84;102618.59;5074965;28;20119;-59
2022/11/26 04:46:59;;;;;;;35.63;15.13;;;;;;;4.72;99.95;102615.97;5103978;28;20040;-60
2022/11/26 04:49:26;;;;;;;32.15;13.68;;;;;;;4.70;99.48;102623.88;5071423;28;20468;-59
2022/11/26 04:51:52;;;;;;;34.10;14.85;;;;;;;4.75;99.76;102630.00;5104011;28;20053;-60
2022/11/26 04:54:17;;;;;;;33.60;14.18;;;;;;;4.69;99.46;102624.78;5106123;28;20073;-60
2022/11/26 04:56:45;;;;;;;25.25;13.77;;;;;;;4.72;99.51;102630.03;5071712;28;20028;-59
2022/11/26 04:59:10;;;;;;;32.00;14.13;;;;;;;4.70;99.90;102623.00;5073498;28;20025;-60
2022/11/26 05:01:35;;;;;;;24.83;13.25;;;;;;;4.60;99.11;102624.00;5075977;28;20093;-60
2022/11/26 05:04:01;;;;;;;37.05;15.48;;;;;;;4.73;99.21;102613.31;5075631;28;20497;-60
2022/11/26 05:06:29;;;;;;;30.90;14.27;;;;;;;4.68;100.00;102624.81;5076629;28;20028;-60
2022/11/26 05:08:56;;;;;;;27.00;14.60;;;;;;;4.73;100.00;102625.63;5108107;27;20040;-60
2022/11/26 05:11:24;;;;;;;30.92;14.25;;;;;;;4.67;99.59;102626.53;5094867;28;20035;-60
2022/11/26 05:13:49;;;;;;;33.97;14.27;;;;;;;4.69;100.00;102643.22;5095201;28;20032;-60
2022/11/26 05:16:17;;;;;;;32.10;15.57;;;;;;;4.68;100.00;102638.84;5097600;28;20086;-60
2022/11/26 05:18:42;;;;;;;32.13;15.35;;;;;;;4.65;100.00;102638.88;5095601;28;20047;-60
2022/11/26 05:21:08;;;;;;;33.35;15.05;;;;;;;4.67;100.00;102647.63;5095553;28;20478;-60
2022/11/26 05:23:34;;;;;;;35.17;14.73;;;;;;;4.68;100.00;102641.50;5094931;28;20061;-60
2022/11/26 05:25:59;;;;;;;32.45;14.10;;;;;;;4.65;100.00;102633.63;5096769;28;20024;-60
2022/11/26 05:28:25;;;;;;;29.73;13.88;;;;;;;4.66;100.00;102639.75;5101330;28;20031;-60
2022/11/26 05:31:01;;;;;;;34.35;13.50;;;;;;;4.58;100.00;102646.84;5115703;28;20080;-60
2022/11/26 05:33:26;;;;;;;35.10;15.30;;;;;;;4.55;100.00;102647.75;5102775;28;20551;-59
2022/11/26 05:35:52;;;;;;;40.15;15.57;;;;;;;4.59;100.00;102659.13;5097533;28;20118;-60
2022/11/26 05:38:17;;;;;;;34.58;14.27;;;;;;;4.50;100.00;102649.53;5095603;28;20039;-60
2022/11/26 05:40:43;;;;;;;32.67;15.30;;;;;;;4.56;100.00;102644.25;5145450;27;20470;-60
2022/11/26 05:43:08;;;;;;;28.23;14.68;;;;;;;4.54;100.00;102646.00;5096197;28;20360;-59
2022/11/26 05:45:34;;;;;;;34.42;15.32;;;;;;;4.54;100.00;102649.50;5096129;28;20051;-60
2022/11/26 05:47:59;;;;;;;31.70;15.27;;;;;;;4.55;100.00;102648.63;5093729;28;20024;-60
2022/11/26 05:50:25;;;;;;;30.20;14.35;;;;;;;4.57;100.00;102658.28;5095018;28;20383;-60
2022/11/26 05:52:50;;;;;;;38.20;15.18;;;;;;;4.55;100.00;102655.66;5093115;28;20122;-59
2022/11/26 05:55:17;;;;;;;34.28;15.38;;;;;;;4.55;100.00;102660.91;5094581;28;20115;-60
2022/11/26 05:57:43;;;;;;;35.80;15.73;;;;;;;4.54;100.00;102661.81;5095683;28;20035;-60
2022/11/26 06:00:11;;;;;;;33.78;15.60;;;;;;;4.49;100.00;102666.25;5095719;28;20044;-60
2022/11/26 06:02:38;;;;;;;32.15;15.27;;;;;;;4.52;100.00;102672.34;5094869;28;20039;-59
2022/11/26 06:05:04;;;;;;;34.42;15.05;;;;;;;4.50;100.00;102684.69;5095752;28;20039;-60
2022/11/26 06:07:29;;;;;;;35.83;15.73;;;;;;;4.52;100.00;102675.00;5094587;28;20051;-60
2022/11/26 06:09:55;;;;;;;32.72;16.05;;;;;;;4.52;100.00;102679.41;5093768;28;20123;-60
2022/11/26 06:12:23;;;;;;;33.70;15.00;;;;;;;4.52;100.00;102680.25;5093147;28;20070;-60
2022/11/26 06:14:48;;;;;;;37.17;16.20;;;;;;;4.41;100.00;102663.69;5097710;28;20032;-60
2022/11/26 06:17:13;;;;;;;29.90;15.27;;;;;;;4.47;100.00;102675.91;5082334;28;20055;-59
2022/11/26 06:19:39;;;;;;;33.88;16.50;;;;;;;4.55;100.00;102677.59;5086268;28;20043;-60
2022/11/26 06:22:04;;;;;;;31.80;15.73;;;;;;;4.54;100.00;102669.72;5120915;27;20402;-60
2022/11/26 06:24:30;;;;;;;30.88;15.57;;;;;;;4.57;100.00;102677.59;5093651;28;20028;-59
2022/11/26 06:26:56;;;;;;;33.28;15.77;;;;;;;4.55;100.00;102682.00;5098702;28;20158;-59
2022/11/26 06:29:21;;;;;;;36.80;15.48;;;;;;;4.53;100.00;102689.06;5095275;28;20031;-59
2022/11/26 06:31:47;;;;;;;31.63;15.02;;;;;;;4.58;100.00;102681.09;5089587;28;20035;-59
2022/11/26 06:34:14;;;;;;;35.33;15.40;;;;;;;4.52;100.00;102684.66;5076565;28;20105;-59
2022/11/26 06:36:39;;;;;;;27.60;14.65;;;;;;;4.43;100.00;102671.56;5077677;28;20039;-59
2022/11/26 06:39:10;;;;;;;33.00;15.85;;;;;;;4.49;100.00;102675.03;5092347;28;20036;-60
2022/11/26 06:41:36;;;;;;;36.55;15.00;;;;;;;4.56;100.00;102686.41;5094638;28;20074;-60
2022/11/26 06:44:02;;;;;;;32.28;16.45;;;;;;;4.57;100.00;102692.53;5094059;28;20028;-60
2022/11/26 06:46:33;;;;;;;34.28;15.00;;;;;;;4.51;100.00;102683.78;5094946;28;20030;-60
2022/11/26 06:49:05;;;;;;;37.20;16.63;;;;;;;4.50;100.00;102689.97;5114130;28;20129;-59
2022/11/26 06:51:33;;;;;;;27.33;14.63;;;;;;;4.48;100.00;102699.63;5114180;28;20490;-59
2022/11/26 06:53:59;;;;;;;37.22;16.30;;;;;;;4.48;100.00;102699.63;5089188;28;20088;-59
2022/11/26 06:56:24;;;;;;;35.45;15.93;;;;;;;4.49;100.00;102696.09;5092314;28;20028;-59
2022/11/26 06:58:56;;;;;;;35.30;15.40;;;;;;;4.49;100.00;102703.13;5093558;28;20043;-60
2022/11/26 07:01:25;;;;;;;34.63;14.93;;;;;;;4.51;100.00;102698.72;5092161;28;20028;-60
2022/11/26 07:03:51;;;;;;;32.13;15.25;;;;;;;4.45;100.00;102701.41;5092091;28;20042;-60
2022/11/26 07:06:25;;;;;;;34.28;14.95;;;;;;;4.50;100.00;102702.22;5127490;27;20024;-60
2022/11/26 07:08:52;;;;;;;33.45;15.32;;;;;;;4.47;100.00;102712.78;5092921;28;20027;-60
2022/11/26 07:11:27;;;;;;;34.58;15.48;;;;;;;4.46;100.00;102713.69;5093193;28;20102;-60
2022/11/26 07:13:52;;;;;;;35.63;15.85;;;;;;;4.47;100.00;102721.59;5093196;28;20024;-60
2022/11/26 07:16:18;;;;;;;37.55;15.02;;;;;;;4.43;100.00;102727.75;5093400;28;20036;-60
2022/11/26 07:18:52;;;;;;;29.95;15.45;;;;;;;4.41;100.00;102726.91;5094294;28;20044;-60
2022/11/26 07:21:18;;;;;;;30.45;15.27;;;;;;;4.43;100.00;102726.88;5092759;28;20111;-60
2022/11/26 07:23:43;;;;;;;23.50;13.48;;;;;;;4.41;100.00;102724.28;5092429;28;20054;-60
2022/11/26 07:26:11;;;;;;;35.47;15.13;;;;;;;4.36;100.00;102728.69;5092767;28;20024;-60
2022/11/26 07:28:36;;;;;;;31.05;14.82;;;;;;;4.43;100.00;102742.69;5092479;28;20044;-59
2022/11/26 07:31:05;;;;;;;34.88;15.48;;;;;;;4.39;100.00;102739.22;5091716;28;20039;-59
2022/11/26 07:33:31;;;;;;;31.13;15.02;;;;;;;4.37;100.00;102734.84;5092648;28;20364;-60
2022/11/26 07:36:01;;;;;;;34.00;14.70;;;;;;;4.35;100.00;102745.38;5092736;28;20077;-60
2022/11/26 07:38:27;;;;;;;31.45;15.05;;;;;;;4.37;100.00;102733.06;5093485;28;20027;-59
2022/11/26 07:41:02;;;;;;;29.55;14.88;;;;;;;4.36;100.00;102733.97;5092537;28;20024;-60
2022/11/26 07:43:28;;;;;;;33.17;16.35;;;;;;;4.38;100.00;102733.94;5092606;28;20074;-60
2022/11/26 07:45:55;;;;;;;42.17;18.00;;;;;;;4.37;100.00;102740.97;5092751;28;20467;-60
2022/11/26 07:48:23;;;;;;;36.30;17.98;;;;;;;4.37;100.00;102740.97;5093636;28;20470;-60
2022/11/26 07:50:49;;;;;;;31.90;17.30;;;;;;;4.43;100.00;102737.44;5090949;28;20066;-59
2022/11/26 07:53:19;;;;;;;33.25;17.98;;;;;;;4.36;100.00;102741.88;5124810;27;20107;-60
2022/11/26 07:55:46;;;;;;;;;;;;;;;4.50;100.00;102737.38;5091878;28;20024;-60
2022/11/26 07:58:12;;;;;;;39.08;19.45;;;;;;;4.40;100.00;102735.69;5092385;28;19912;-60
2022/11/26 08:00:37;;;;;;;42.83;19.38;;;;;;;4.43;100.00;102742.69;5092463;28;20036;-60
2022/11/26 08:03:03;;;;;;;38.05;19.33;;;;;;;4.43;100.00;102737.44;5090970;28;20416;-59
2022/11/26 08:05:28;;;;;;;36.20;19.65;;;;;;;4.45;100.00;102744.44;5092445;28;20181;-60
2022/11/26 08:07:53;;;;;;;35.80;20.08;;;;;;;4.47;100.00;102740.03;5090265;28;20113;-60
2022/11/26 08:10:19;;;;;;;33.05;19.45;;;;;;;4.52;100.00;102742.63;5093385;28;20036;-60
2022/11/26 08:12:44;;;;;;;39.55;21.05;;;;;;;4.54;100.00;102744.38;5090928;28;20441;-60
2022/11/26 08:15:10;;;;;;;45.72;20.65;;;;;;;4.59;100.00;102740.81;5092325;28;20081;-60
2022/11/26 08:17:35;;;;;;;41.35;19.63;;;;;;;4.63;100.00;102743.44;5091865;28;20028;-60
2022/11/26 08:20:01;;;;;;;36.22;19.75;;;;;;;4.64;100.00;102744.28;5075052;28;20042;-60
2022/11/26 08:22:28;;;;;;;38.80;19.02;;;;;;;4.63;100.00;102735.53;5091732;28;20040;-60
2022/11/26 08:24:56;;;;;;;36.30;19.15;;;;;;;4.70;100.00;102744.25;5090261;28;20024;-60
2022/11/26 08:27:22;;;;;;;35.17;18.73;;;;;;;4.76;100.00;102746.81;5091923;28;20063;-60
2022/11/26 08:29:47;;;;;;;38.95;19.38;;;;;;;4.70;100.00;102741.59;5091780;28;20495;-60
2022/11/26 08:32:12;;;;;;;36.33;18.55;;;;;;;4.82;100.00;102756.44;5092931;28;20056;-60
2022/11/26 08:34:38;;;;;;;39.55;19.83;;;;;;;4.87;100.00;102759.94;5091929;28;20035;-60
2022/11/26 08:37:03;;;;;;;40.30;19.05;;;;;;;4.91;100.00;102754.63;5091698;28;20073;-60
2022/11/26 08:39:29;;;;;;;35.88;18.45;;;;;;;4.94;100.00;102758.97;5089785;28;20040;-60
2022/11/26 08:41:54;;;;;;;38.65;18.73;;;;;;;4.96;100.00;102765.13;5093026;28;20048;-60
2022/11/26 08:44:20;;;;;;;36.05;18.92;;;;;;;4.95;100.00;102758.13;5091774;28;20129;-60
2022/11/26 08:46:46;;;;;;;37.60;18.35;;;;;;;5.04;100.00;102762.44;5091873;28;20028;-60
2022/11/26 08:49:15;;;;;;;36.00;17.85;;;;;;;5.08;100.00;102765.00;5092601;28;20024;-60
2022/11/26 08:51:42;;;;;;;37.22;18.30;;;;;;;5.13;100.00;102763.22;5110524;28;20035;-60
2022/11/26 08:54:08;;;;;;;37.55;19.08;;;;;;;5.15;100.00;102765.84;5111535;28;20030;-60
2022/11/26 08:56:34;;;;;;;42.83;18.00;;;;;;;5.16;100.00;102765.81;5112173;28;20019;-60
2022/11/26 08:58:59;;;;;;;42.40;17.88;;;;;;;5.18;100.00;102756.13;5111961;28;20042;-59
2022/11/26 09:01:27;;;;;;;33.13;18.60;;;;;;;5.21;100.00;102769.28;5091960;28;20042;-59
2022/11/26 09:03:55;;;;;;;34.55;18.63;;;;;;;5.20;100.00;102767.53;5112029;28;20118;-60
2022/11/26 09:06:22;;;;;;;35.90;17.20;;;;;;;5.25;100.00;102767.50;5111584;28;20386;-59
2022/11/26 09:11:34;;;;;;;43.17;18.77;;;;;;;5.30;100.00;102778.88;5110410;28;20034;-60
2022/11/26 09:14:01;;;;;;;35.58;17.63;;;;;;;5.28;100.00;102775.38;5110593;28;20023;-59
2022/11/26 09:16:29;;;;;;;34.75;17.27;;;;;;;5.40;100.00;102784.94;5092158;28;20482;-60
2022/11/26 09:18:55;;;;;;;38.65;18.17;;;;;;;5.43;100.00;102785.75;5088563;28;20024;-59
2022/11/26 09:21:21;;;;;;;37.70;19.17;;;;;;;5.45;100.00;102777.84;5085849;28;20077;-59
2022/11/26 09:23:46;;;;;;;32.80;18.02;;;;;;;5.53;100.00;102780.38;5074212;28;20028;-59
2022/11/26 09:26:12;;;;;;;31.90;16.48;;;;;;;5.55;100.00;102789.16;5096063;28;20474;-59
2022/11/26 09:28:38;;;;;;;42.60;17.40;;;;;;;5.59;100.00;102778.56;5109551;28;20063;-60
2022/11/26 09:31:04;;;;;;;44.55;18.25;;;;;;;5.63;100.00;102788.19;5096063;28;20429;-60
2022/11/26 09:33:29;;;;;;;37.80;17.20;;;;;;;5.68;100.00;102794.31;5104429;28;20058;-60
2022/11/26 09:36:13;;;;;;;42.92;17.92;;;;;;;5.74;100.00;102797.78;5106539;28;20099;-60
2022/11/26 09:38:40;;;;;;;41.78;17.42;;;;;;;5.73;100.00;102803.94;5110952;28;20030;-60
2022/11/26 09:41:08;;;;;;;40.22;17.27;;;;;;;5.82;100.00;102802.03;5110480;28;20024;-60
2022/11/26 09:44:02;;;;;;;34.55;15.63;;;;;;;5.86;100.00;102802.91;5110743;28;20023;-60
2022/11/26 09:46:36;;;;;;;33.10;16.52;;;;;;;5.93;100.00;102799.31;5113858;28;20379;-60
2022/11/26 09:49:05;;;;;;;42.15;18.33;;;;;;;5.92;100.00;102789.63;5115034;28;20051;-60
2022/11/26 09:51:32;;;;;;;37.33;17.93;;;;;;;6.02;100.00;102791.28;5115122;28;20094;-60
2022/11/26 09:54:03;;;;;;;35.08;16.98;;;;;;;6.00;100.00;102784.25;5114569;28;20764;-59
2022/11/26 09:56:29;;;;;;;43.75;16.83;;;;;;;6.08;100.00;102795.63;5113433;28;20043;-60
2022/11/26 09:58:58;;;;;;;28.55;16.15;;;;;;;6.12;100.00;102792.94;5131069;27;20127;-60
2022/11/26 10:01:24;;;;;;;32.15;15.90;;;;;;;6.18;100.00;102788.44;5114126;28;20019;-60
2022/11/26 10:03:50;;;;;;;39.50;16.90;;;;;;;6.14;100.00;102777.03;5148146;27;20042;-60
2022/11/26 10:06:34;;;;;;;39.33;17.30;;;;;;;6.27;100.00;102794.50;5112118;28;20038;-60
2022/11/26 10:09:41;;;;;;;34.30;17.83;;;;;;;6.30;100.00;102794.44;5106822;28;20036;-60
2022/11/26 10:12:43;;;;;;;37.50;15.85;;;;;;;6.38;100.00;102796.97;4996249;28;20084;-60
2022/11/26 10:15:16;;;;;;;36.90;15.93;;;;;;;6.39;100.00;102797.88;5012454;28;20042;-60
2022/11/26 10:17:53;;;;;;;38.17;16.33;;;;;;;6.46;100.00;102800.38;5075826;28;20491;-60
2022/11/26 10:20:50;;;;;;;42.28;16.27;;;;;;;6.57;100.00;102805.53;5094315;28;20040;-60
2022/11/26 10:23:32;;;;;;;32.10;14.68;;;;;;;6.73;100.00;102798.22;5092738;28;20093;-60
2022/11/26 10:26:05;;;;;;;29.98;16.25;;;;;;;7.01;100.00;102793.38;5093175;28;20039;-60
2022/11/26 10:28:38;;;;;;;39.13;14.85;;;;;;;7.49;100.00;102790.72;5094802;28;20048;-60
2022/11/26 10:31:14;;;;;;;33.95;14.73;;;;;;;7.77;98.33;102785.78;5111058;28;20106;-60
2022/11/26 10:34:01;;;;;;;39.15;13.75;;;;;;;8.07;96.94;102783.41;5114095;28;20027;-60
2022/11/26 10:36:36;;;;;;;28.67;13.75;;;;;;;8.16;95.18;102780.56;5114339;28;20055;-60
2022/11/26 10:39:04;;;;;;;30.30;13.20;;;;;;;8.24;94.57;102772.44;5106366;28;20027;-60
2022/11/26 10:41:34;;;;;;;30.60;11.93;;;;;;;8.29;93.88;102771.41;5113165;28;20024;-60
2022/11/26 10:44:32;;;;;;;30.58;12.00;;;;;;;8.39;94.38;102767.69;5114068;28;20490;-60
2022/11/26 10:46:59;;;;;;;32.05;13.15;;;;;;;8.27;94.17;102767.06;5114207;28;20038;-60
2022/11/26 10:49:28;;;;;;;28.02;12.05;;;;;;;8.51;93.82;102771.84;5112177;28;20020;-60
2022/11/26 10:52:00;;;;;;;28.40;12.75;;;;;;;8.88;91.86;102765.63;5113217;28;20423;-60
2022/11/26 10:54:31;;;;;;;27.98;12.40;;;;;;;9.21;90.88;102768.34;5113669;28;20102;-60
2022/11/26 10:57:05;;;;;;;27.77;11.05;;;;;;;9.35;89.06;102770.59;5113193;28;20023;-61
2022/11/26 10:59:36;;;;;;;26.52;10.68;;;;;;;9.46;88.10;102769.41;5112022;28;20038;-60
2022/11/26 11:02:21;;;;;;;24.45;10.35;;;;;;;9.65;87.62;102758.28;5113972;28;20110;-60
2022/11/26 11:04:54;;;;;;;29.83;10.93;;;;;;;10.01;86.35;102738.59;5112625;28;20474;-60
2022/11/26 11:07:38;;;;;;;26.27;9.38;;;;;;;10.58;86.17;102762.56;5114028;28;20092;-60
2022/11/26 11:10:16;;;;;;;26.55;9.63;;;;;;;10.85;83.68;102761.69;5100788;28;20050;-60
2022/11/26 11:12:49;;;;;;;25.95;8.63;;;;;;;10.86;81.10;102765.22;5093414;28;20038;-61
2022/11/26 11:15:21;;;;;;;23.42;8.98;;;;;;;11.03;81.96;102760.19;5092087;28;20032;-60
2022/11/26 11:17:57;;;;;;;28.85;8.95;;;;;;;11.36;80.32;102767.94;5092914;28;20036;-60
2022/11/26 11:20:28;;;;;;;24.42;8.48;;;;;;;11.39;79.12;102748.31;5094381;28;20080;-60
2022/11/26 11:23:15;;;;;;;25.05;8.00;;;;;;;11.66;80.92;102765.06;5092833;28;20133;-60
2022/11/26 11:25:44;;;;;;;23.00;8.70;;;;;;;11.86;78.25;102769.72;5092741;28;20463;-60